Time;durP1;ratioP1;P1;durP2;ratioP2;P2;SDS_P1;SDS_P2;PMS_P1;PMS_P2;Temp;Humidity;BMP_temperature;BMP_pressure;BME280_temperature;BME280_humidity;BME280_pressure;Samples;Min_cycle;Max_cycle;Signal;HPM_P1;HPM_P2
2023/07/08 00:01:59;;;;;;;2.15;1.35;;;23.00;77.80;;;;;;5081100;28;45414;-73
2023/07/08 00:04:26;;;;;;;1.90;1.52;;;23.00;77.80;;;;;;5080854;28;45418;-72
2023/07/08 00:06:53;;;;;;;3.45;1.73;;;23.00;77.80;;;;;;5080621;28;45406;-73
2023/07/08 00:09:20;;;;;;;3.28;1.85;;;23.00;77.80;;;;;;5080384;28;46320;-73
2023/07/08 00:11:47;;;;;;;4.63;2.15;;;23.00;77.80;;;;;;5081913;28;45489;-70
2023/07/08 00:14:14;;;;;;;5.97;2.67;;;23.00;77.90;;;;;;5075843;28;45413;-70
2023/07/08 00:16:40;;;;;;;10.73;4.97;;;23.00;78.00;;;;;;5074599;28;45468;-71
2023/07/08 00:19:10;;;;;;;12.13;5.50;;;23.00;78.10;;;;;;5077838;28;46450;-72
2023/07/08 00:21:37;;;;;;;15.57;6.82;;;23.10;78.20;;;;;;5080796;28;45450;-73
2023/07/08 00:24:05;;;;;;;16.98;7.90;;;23.10;78.30;;;;;;5080563;28;45474;-72
2023/07/08 00:26:32;;;;;;;13.15;6.95;;;23.10;78.20;;;;;;5081883;28;45537;-74
2023/07/08 00:28:59;;;;;;;17.98;8.18;;;23.10;78.40;;;;;;5089712;27;45447;-74
2023/07/08 00:31:26;;;;;;;16.35;7.35;;;23.10;78.40;;;;;;5081592;28;45529;-74
2023/07/08 00:33:55;;;;;;;13.95;7.60;;;23.10;78.40;;;;;;5081059;28;45307;-74
2023/07/08 00:36:24;;;;;;;14.25;7.38;;;23.00;78.40;;;;;;5082561;28;45574;-74
2023/07/08 00:38:51;;;;;;;15.85;8.05;;;23.10;78.50;;;;;;5082750;28;47372;-75
2023/07/08 00:41:23;;;;;;;13.45;7.22;;;23.10;78.50;;;;;;5083976;27;45365;-74
2023/07/08 00:43:51;;;;;;;14.68;7.38;;;23.10;78.40;;;;;;5087120;28;45134;-74
2023/07/08 00:46:41;;;;;;;15.85;7.78;;;23.10;78.50;;;;;;5086416;28;45605;-75
2023/07/08 00:49:24;;;;;;;16.33;7.78;;;23.00;78.50;;;;;;5084744;28;48487;-75
2023/07/08 00:51:52;;;;;;;16.35;7.65;;;23.00;78.50;;;;;;5099192;27;45565;-74
2023/07/08 00:54:20;;;;;;;16.05;8.45;;;23.00;78.50;;;;;;5089768;27;45266;-74
2023/07/08 00:56:50;;;;;;;18.88;8.63;;;23.00;78.50;;;;;;5087202;28;45228;-74
2023/07/08 00:59:23;;;;;;;18.17;8.27;;;23.00;78.50;;;;;;5100134;27;46627;-74
2023/07/08 01:01:51;;;;;;;19.23;8.10;;;23.00;78.50;;;;;;5093244;27;45228;-74
2023/07/08 01:04:23;;;;;;;15.32;7.75;;;23.00;78.50;;;;;;5089574;27;45259;-74
2023/07/08 01:06:57;;;;;;;16.10;7.57;;;23.00;78.50;;;;;;5087503;28;45363;-74
2023/07/08 01:09:26;;;;;;;14.98;7.68;;;23.00;78.50;;;;;;5095614;27;47277;-75
2023/07/08 01:11:53;;;;;;;14.90;7.80;;;23.00;78.50;;;;;;5095471;27;45585;-74
2023/07/08 01:14:22;;;;;;;13.80;7.57;;;23.00;78.50;;;;;;5097259;27;45285;-74
2023/07/08 01:16:50;;;;;;;13.65;7.13;;;23.00;78.50;;;;;;5087235;28;45419;-75
2023/07/08 01:19:31;;;;;;;14.85;6.70;;;23.00;78.50;;;;;;5086519;28;46691;-74
2023/07/08 01:22:01;;;;;;;13.35;6.80;;;23.00;78.60;;;;;;5102131;27;46597;-74
2023/07/08 01:24:30;;;;;;;12.68;6.85;;;23.00;78.50;;;;;;5096316;27;45386;-74
2023/07/08 01:26:58;;;;;;;14.43;7.28;;;23.00;78.50;;;;;;5092531;27;45440;-75
2023/07/08 01:29:25;;;;;;;16.52;7.50;;;23.00;78.60;;;;;;5075965;28;46960;-74
2023/07/08 01:31:52;;;;;;;11.77;6.28;;;23.00;78.40;;;;;;5086414;27;45441;-74
2023/07/08 01:34:19;;;;;;;13.32;6.65;;;23.00;78.50;;;;;;5106457;27;45387;-74
2023/07/08 01:36:51;;;;;;;12.90;6.15;;;23.00;78.50;;;;;;5086948;28;45185;-74
2023/07/08 01:39:21;;;;;;;14.40;6.93;;;23.00;78.40;;;;;;5094523;27;45468;-74
2023/07/08 01:41:48;;;;;;;12.88;6.78;;;23.00;78.50;;;;;;5091844;27;45258;-74
2023/07/08 01:44:30;;;;;;;13.52;6.82;;;23.00;78.40;;;;;;5089107;27;45246;-74
2023/07/08 01:47:00;;;;;;;11.52;5.68;;;23.00;78.50;;;;;;5086890;28;45359;-74
2023/07/08 01:49:28;;;;;;;12.65;6.40;;;23.00;78.50;;;;;;5088341;27;46297;-74
2023/07/08 01:51:56;;;;;;;11.35;5.65;;;23.00;78.50;;;;;;5098673;27;45269;-74
2023/07/08 01:54:24;;;;;;;12.23;6.05;;;23.00;78.40;;;;;;5088842;27;45450;-74
2023/07/08 01:56:56;;;;;;;11.27;6.05;;;23.00;78.40;;;;;;5094782;27;45348;-74
2023/07/08 01:59:22;;;;;;;10.05;5.53;;;23.00;78.40;;;;;;5103497;27;47322;-75
2023/07/08 02:01:54;;;;;;;12.07;5.95;;;23.00;78.30;;;;;;5081076;28;45253;-74
2023/07/08 02:04:21;;;;;;;9.50;5.20;;;23.00;78.40;;;;;;5084322;28;45321;-75
2023/07/08 02:06:52;;;;;;;11.13;6.00;;;23.00;78.40;;;;;;5091532;27;45526;-74
2023/07/08 02:09:19;;;;;;;10.15;5.63;;;23.00;78.30;;;;;;5087860;27;46325;-74
2023/07/08 02:11:47;;;;;;;11.27;5.90;;;23.00;78.40;;;;;;5090767;27;45286;-74
2023/07/08 02:14:14;;;;;;;9.25;5.57;;;23.00;78.40;;;;;;5086514;27;45321;-74
2023/07/08 02:16:40;;;;;;;8.88;5.00;;;23.00;78.30;;;;;;5085934;28;45451;-74
2023/07/08 02:19:07;;;;;;;9.52;5.43;;;23.00;78.30;;;;;;5084954;28;47208;-74
2023/07/08 02:21:34;;;;;;;9.00;5.25;;;23.00;78.20;;;;;;5093568;27;45352;-74
2023/07/08 02:24:01;;;;;;;11.00;5.55;;;23.00;78.30;;;;;;5092126;27;45422;-74
2023/07/08 02:26:31;;;;;;;9.52;4.85;;;23.00;78.40;;;;;;5088543;27;45588;-74
2023/07/08 02:29:00;;;;;;;9.80;4.78;;;23.00;78.20;;;;;;5084947;28;47406;-74
2023/07/08 02:31:27;;;;;;;9.88;5.20;;;23.00;79.20;;;;;;5096541;27;45214;-74
2023/07/08 02:33:54;;;;;;;8.60;5.18;;;23.00;78.10;;;;;;5091250;27;45584;-75
2023/07/08 02:36:22;;;;;;;10.55;4.63;;;23.00;78.20;;;;;;5085234;28;45263;-74
2023/07/08 02:38:48;;;;;;;11.00;5.10;;;23.00;78.20;;;;;;5085266;28;46306;-75
2023/07/08 02:41:15;;;;;;;8.77;5.07;;;23.00;78.10;;;;;;5088742;27;45390;-74
2023/07/08 02:43:42;;;;;;;9.80;5.15;;;23.00;77.90;;;;;;5085907;28;45371;-74
2023/07/08 02:46:10;;;;;;;11.18;4.82;;;23.00;78.20;;;;;;5102321;27;45561;-74
2023/07/08 02:48:37;;;;;;;8.32;4.72;;;23.00;78.20;;;;;;5080759;27;48666;-75
2023/07/08 02:51:06;;;;;;;10.40;5.22;;;23.00;78.10;;;;;;5087282;27;45336;-73
2023/07/08 02:53:33;;;;;;;7.15;4.75;;;23.00;78.10;;;;;;5100390;27;45389;-74
2023/07/08 02:55:59;;;;;;;8.80;5.13;;;23.00;78.20;;;;;;5085572;28;45241;-74
2023/07/08 02:58:26;;;;;;;8.32;4.97;;;23.00;78.20;;;;;;5095435;27;47763;-75
2023/07/08 03:00:53;;;;;;;7.50;4.38;;;23.00;78.10;;;;;;5096921;27;45207;-74
2023/07/08 03:03:22;;;;;;;7.90;4.75;;;23.00;78.10;;;;;;5086470;27;45302;-74
2023/07/08 03:05:55;;;;;;;7.70;4.50;;;23.00;78.10;;;;;;5086004;27;45570;-75
2023/07/08 03:08:22;;;;;;;7.47;4.55;;;23.00;78.00;;;;;;5084974;28;46568;-74
2023/07/08 03:10:55;;;;;;;8.80;4.13;;;23.00;78.00;;;;;;5084996;28;45353;-74
2023/07/08 03:13:22;;;;;;;8.93;4.85;;;23.00;78.00;;;;;;5082103;28;45273;-74
2023/07/08 03:15:48;;;;;;;7.70;4.45;;;23.00;77.90;;;;;;5090344;27;45336;-74
2023/07/08 03:18:15;;;;;;;7.35;4.22;;;23.00;77.90;;;;;;5088058;27;45249;-75
2023/07/08 03:20:44;;;;;;;7.55;4.28;;;23.00;78.00;;;;;;5086264;27;46337;-74
2023/07/08 03:23:11;;;;;;;7.45;4.25;;;23.00;78.00;;;;;;5085528;28;45413;-74
2023/07/08 03:25:39;;;;;;;9.45;4.60;;;23.00;77.90;;;;;;5084788;28;45660;-74
2023/07/08 03:28:07;;;;;;;8.55;4.40;;;23.00;77.90;;;;;;5084269;28;45419;-74
2023/07/08 03:30:34;;;;;;;7.15;4.00;;;23.00;77.90;;;;;;5090125;27;45585;-75
2023/07/08 03:33:01;;;;;;;7.25;4.43;;;23.00;77.80;;;;;;5100318;27;45155;-75
2023/07/08 03:35:28;;;;;;;7.72;4.55;;;23.00;77.80;;;;;;5085706;27;45428;-75
2023/07/08 03:37:56;;;;;;;8.40;4.28;;;23.00;77.70;;;;;;5099395;27;45327;-75
2023/07/08 03:40:23;;;;;;;7.38;4.35;;;23.00;77.60;;;;;;5087720;27;45318;-74
2023/07/08 03:42:49;;;;;;;6.68;3.80;;;23.00;77.60;;;;;;5090464;27;45312;-74
2023/07/08 03:45:16;;;;;;;6.93;3.80;;;23.00;77.70;;;;;;5096453;27;45411;-75
2023/07/08 03:47:43;;;;;;;5.28;3.47;;;23.00;77.70;;;;;;5089561;27;48854;-74
2023/07/08 03:50:18;;;;;;;5.50;3.60;;;23.00;77.60;;;;;;5105765;27;46337;-74
2023/07/08 03:52:46;;;;;;;8.23;4.05;;;23.00;77.60;;;;;;5070524;28;45295;-75
2023/07/08 03:55:14;;;;;;;6.53;4.03;;;23.00;77.60;;;;;;5093851;27;45289;-75
2023/07/08 03:57:41;;;;;;;8.00;4.38;;;23.00;77.60;;;;;;5105321;27;45514;-74
2023/07/08 04:00:11;;;;;;;8.20;4.53;;;23.00;77.70;;;;;;5084663;27;45325;-75
2023/07/08 04:02:38;;;;;;;7.07;3.97;;;23.00;77.70;;;;;;5080755;27;45276;-75
2023/07/08 04:05:06;;;;;;;6.30;3.90;;;23.00;77.70;;;;;;5092247;27;45424;-75
2023/07/08 04:07:34;;;;;;;6.18;3.67;;;23.00;77.70;;;;;;5089048;27;47386;-74
2023/07/08 04:10:01;;;;;;;6.40;3.90;;;23.00;77.60;;;;;;5094946;27;45238;-75
2023/07/08 04:12:29;;;;;;;5.07;3.30;;;23.00;77.60;;;;;;5086106;27;45477;-74
2023/07/08 04:14:56;;;;;;;7.10;4.07;;;23.00;77.60;;;;;;5084644;28;45367;-75
2023/07/08 04:17:23;;;;;;;7.30;3.75;;;23.00;77.50;;;;;;5096770;27;45126;-74
2023/07/08 04:19:50;;;;;;;7.60;3.83;;;23.00;77.50;;;;;;5101847;27;45405;-74
2023/07/08 04:22:17;;;;;;;6.05;3.30;;;23.00;77.40;;;;;;5090125;27;45451;-74
2023/07/08 04:24:44;;;;;;;5.88;3.72;;;23.00;77.30;;;;;;5092323;27;45358;-75
2023/07/08 04:27:15;;;;;;;6.55;3.80;;;23.00;77.20;;;;;;5108145;27;47529;-75
2023/07/08 04:29:44;;;;;;;5.95;3.63;;;23.00;77.10;;;;;;5092881;27;45822;-74
2023/07/08 04:32:11;;;;;;;5.97;3.40;;;23.00;77.00;;;;;;5096430;27;45424;-74
2023/07/08 04:34:38;;;;;;;7.57;3.83;;;23.00;77.00;;;;;;5090078;27;45502;-74
2023/07/08 04:37:05;;;;;;;5.75;3.50;;;23.00;76.80;;;;;;5087321;28;48224;-74
2023/07/08 04:39:32;;;;;;;5.55;3.28;;;23.00;76.80;;;;;;5096061;27;45370;-75
2023/07/08 04:41:59;;;;;;;6.40;3.45;;;23.00;76.80;;;;;;5087834;28;45219;-74
2023/07/08 04:44:27;;;;;;;4.63;3.38;;;23.00;76.80;;;;;;5087963;27;45206;-75
2023/07/08 04:46:57;;;;;;;6.22;3.65;;;23.00;76.70;;;;;;5087089;28;46796;-74
2023/07/08 04:49:31;;;;;;;5.47;3.53;;;23.00;76.50;;;;;;5087881;28;45385;-74
2023/07/08 04:51:59;;;;;;;6.80;3.53;;;23.00;76.60;;;;;;5093819;27;45346;-76
2023/07/08 04:54:26;;;;;;;5.20;3.60;;;23.00;76.60;;;;;;5099821;27;45236;-74
2023/07/08 04:56:53;;;;;;;4.57;3.15;;;23.00;76.60;;;;;;5093751;27;45280;-74
2023/07/08 04:59:22;;;;;;;6.07;3.45;;;23.00;76.40;;;;;;5104730;27;45474;-74
2023/07/08 05:01:49;;;;;;;6.05;3.28;;;23.00;76.30;;;;;;5094328;27;45332;-74
2023/07/08 05:04:20;;;;;;;5.07;3.33;;;23.00;76.30;;;;;;5096202;27;45407;-74
2023/07/08 05:06:47;;;;;;;5.40;3.20;;;23.00;76.30;;;;;;5086574;28;45332;-74
2023/07/08 05:09:14;;;;;;;4.97;3.00;;;23.00;76.20;;;;;;5086995;28;45174;-74
2023/07/08 05:11:41;;;;;;;5.47;2.75;;;23.00;76.30;;;;;;5095740;27;45315;-75
2023/07/08 05:14:08;;;;;;;4.55;3.10;;;23.00;76.10;;;;;;5078757;28;45225;-75
2023/07/08 05:16:36;;;;;;;4.57;3.00;;;23.00;76.10;;;;;;5089735;27;46527;-75
2023/07/08 05:19:03;;;;;;;5.20;3.20;;;23.00;76.10;;;;;;5086512;28;45301;-74
2023/07/08 05:21:33;;;;;;;6.53;3.03;;;23.00;76.10;;;;;;5091522;27;45503;-74
2023/07/08 05:24:00;;;;;;;4.18;2.88;;;23.00;76.20;;;;;;5096903;27;45238;-75
2023/07/08 05:26:27;;;;;;;4.85;2.90;;;23.00;76.10;;;;;;5097511;27;45351;-75
2023/07/08 05:28:54;;;;;;;5.05;3.30;;;23.00;76.10;;;;;;5094412;27;45325;-74
2023/07/08 05:31:21;;;;;;;5.53;3.35;;;23.00;76.10;;;;;;5087278;27;45249;-74
2023/07/08 05:33:47;;;;;;;4.25;2.75;;;23.00;76.10;;;;;;5090292;27;45190;-74
2023/07/08 05:36:14;;;;;;;4.75;2.75;;;23.00;76.10;;;;;;5086903;28;46363;-75
2023/07/08 05:38:42;;;;;;;4.35;2.95;;;23.00;76.00;;;;;;5093108;27;45260;-74
2023/07/08 05:41:09;;;;;;;4.30;3.10;;;23.00;76.10;;;;;;5107499;27;45482;-74
2023/07/08 05:43:36;;;;;;;4.25;2.78;;;23.00;76.10;;;;;;5095888;27;45413;-75
2023/07/08 05:46:03;;;;;;;5.70;3.13;;;23.00;75.90;;;;;;5086937;28;46876;-75
2023/07/08 05:48:30;;;;;;;5.25;3.22;;;23.00;75.90;;;;;;5094986;27;45395;-75
2023/07/08 05:50:57;;;;;;;4.53;2.50;;;23.00;75.90;;;;;;5086561;27;45250;-75
2023/07/08 05:53:24;;;;;;;3.78;2.60;;;23.00;75.90;;;;;;5095557;27;45441;-74
2023/07/08 05:55:52;;;;;;;5.10;3.00;;;23.00;75.80;;;;;;5086358;28;47316;-74
2023/07/08 05:58:19;;;;;;;4.97;3.15;;;23.00;75.90;;;;;;5086310;28;45580;-75
2023/07/08 06:00:46;;;;;;;4.90;2.78;;;23.00;76.00;;;;;;5090920;27;45395;-75
2023/07/08 06:03:13;;;;;;;4.07;2.67;;;23.00;75.70;;;;;;5095475;27;45385;-74
2023/07/08 06:05:40;;;;;;;4.45;2.83;;;23.00;75.70;;;;;;5093044;27;46350;-71
2023/07/08 06:08:08;;;;;;;4.55;2.60;;;23.00;74.70;;;;;;5085932;28;45420;-71
2023/07/08 06:10:35;;;;;;;5.57;2.47;;;22.90;75.70;;;;;;5082883;28;45418;-71
2023/07/08 06:13:04;;;;;;;6.30;2.83;;;22.70;76.00;;;;;;5087568;27;45485;-69
2023/07/08 06:15:31;;;;;;;6.88;3.03;;;22.70;73.40;;;;;;5083653;27;45336;-70
2023/07/08 06:18:00;;;;;;;8.85;3.15;;;22.80;74.00;;;;;;5080432;28;45446;-71
2023/07/08 06:20:27;;;;;;;6.43;2.78;;;22.90;74.30;;;;;;5088918;27;45550;-70
2023/07/08 06:22:54;;;;;;;7.40;2.95;;;22.80;72.40;;;;;;5084070;28;45408;-70
2023/07/08 06:25:21;;;;;;;9.43;3.25;;;22.80;70.60;;;;;;5083065;27;46553;-70
2023/07/08 06:27:48;;;;;;;4.65;2.83;;;22.80;70.10;;;;;;5089733;27;45451;-70
2023/07/08 06:30:16;;;;;;;3.92;2.72;;;22.80;69.40;;;;;;5084044;27;45360;-70
2023/07/08 06:32:43;;;;;;;5.22;2.80;;;22.80;69.60;;;;;;5081046;28;45558;-70
2023/07/08 06:35:10;;;;;;;6.45;2.95;;;22.80;69.60;;;;;;5083554;28;47536;-71
2023/07/08 06:37:36;;;;;;;5.03;2.67;;;22.80;70.00;;;;;;5082989;28;45391;-70
2023/07/08 06:40:04;;;;;;;4.28;2.55;;;22.80;71.00;;;;;;5088700;27;45403;-70
2023/07/08 06:42:30;;;;;;;7.20;2.67;;;22.80;69.90;;;;;;5085335;27;45451;-70
2023/07/08 06:44:57;;;;;;;4.78;3.10;;;22.80;69.30;;;;;;5088443;27;47214;-70
2023/07/08 06:47:25;;;;;;;4.93;2.70;;;22.80;69.60;;;;;;5089634;27;45769;-71
2023/07/08 06:49:52;;;;;;;4.40;2.80;;;22.80;68.90;;;;;;5082820;27;45443;-70
2023/07/08 06:52:19;;;;;;;6.88;3.00;;;22.80;69.40;;;;;;5083326;28;45395;-70
2023/07/08 06:54:46;;;;;;;5.47;3.10;;;22.80;69.90;;;;;;5080141;28;47137;-70
2023/07/08 06:57:12;;;;;;;4.65;2.85;;;22.70;69.80;;;;;;5082279;28;45400;-70
2023/07/08 06:59:39;;;;;;;5.40;3.10;;;22.80;69.80;;;;;;5091294;27;45475;-71
2023/07/08 07:02:07;;;;;;;3.53;2.55;;;22.80;69.60;;;;;;5090318;27;45300;-71
2023/07/08 07:04:35;;;;;;;7.15;2.60;;;22.80;69.20;;;;;;5080864;28;47097;-70
2023/07/08 07:07:02;;;;;;;5.18;2.83;;;22.70;69.60;;;;;;5082635;28;45378;-70
2023/07/08 07:09:29;;;;;;;6.38;3.08;;;22.80;69.40;;;;;;5082065;28;45508;-70
2023/07/08 07:11:55;;;;;;;10.35;3.67;;;22.70;69.10;;;;;;5082981;28;45410;-70
2023/07/08 07:14:22;;;;;;;6.85;2.67;;;22.80;69.20;;;;;;5082785;28;45398;-70
2023/07/08 07:16:49;;;;;;;5.63;3.00;;;22.80;70.20;;;;;;5081974;28;45576;-72
2023/07/08 07:19:16;;;;;;;9.32;3.20;;;22.80;69.40;;;;;;5079412;28;45446;-73
2023/07/08 07:21:44;;;;;;;5.20;3.38;;;22.80;68.90;;;;;;5079853;28;45548;-70
2023/07/08 07:24:11;;;;;;;3.40;2.55;;;22.80;69.60;;;;;;5082177;28;46104;-70
2023/07/08 07:26:38;;;;;;;5.05;2.97;;;22.80;69.30;;;;;;5081784;28;45442;-70
2023/07/08 07:29:05;;;;;;;6.88;3.00;;;22.80;67.70;;;;;;5080687;27;45475;-70
2023/07/08 07:31:33;;;;;;;4.32;2.58;;;22.80;68.20;;;;;;5084294;27;45502;-69
2023/07/08 07:34:01;;;;;;;4.45;3.15;;;22.70;69.10;;;;;;5088177;27;47522;-70
2023/07/08 07:36:28;;;;;;;3.42;2.28;;;22.70;69.60;;;;;;5091145;27;45360;-69
2023/07/08 07:38:56;;;;;;;5.53;2.80;;;22.70;70.10;;;;;;5082413;28;45328;-70
2023/07/08 07:41:23;;;;;;;3.92;2.55;;;22.60;70.40;;;;;;5082606;28;45561;-70
2023/07/08 07:43:50;;;;;;;4.28;2.45;;;22.60;70.40;;;;;;5082282;28;46594;-70
2023/07/08 07:46:17;;;;;;;4.38;2.80;;;22.60;70.40;;;;;;5083156;28;45317;-70
2023/07/08 07:48:44;;;;;;;7.70;3.28;;;22.70;70.90;;;;;;5082802;28;45234;-70
2023/07/08 07:51:12;;;;;;;4.25;3.00;;;22.80;71.00;;;;;;5082683;27;45594;-70
2023/07/08 07:53:39;;;;;;;5.45;2.80;;;22.80;70.70;;;;;;5086143;28;47080;-70
2023/07/08 07:56:07;;;;;;;5.75;3.20;;;22.80;70.80;;;;;;5093321;27;45337;-70
2023/07/08 07:58:34;;;;;;;7.57;2.72;;;22.80;71.80;;;;;;5086872;27;45308;-70
2023/07/08 08:01:01;;;;;;;4.60;2.67;;;22.80;70.10;;;;;;5080385;28;45460;-71
2023/07/08 08:03:28;;;;;;;5.60;2.78;;;22.80;70.70;;;;;;5085755;28;45363;-70
2023/07/08 08:05:55;;;;;;;4.32;2.70;;;22.80;70.60;;;;;;5085739;28;45930;-71
2023/07/08 08:08:22;;;;;;;7.40;2.97;;;22.80;70.60;;;;;;5086146;28;45272;-71
2023/07/08 08:10:49;;;;;;;5.47;3.30;;;22.80;70.40;;;;;;5085401;28;45599;-71
2023/07/08 08:13:17;;;;;;;7.63;3.25;;;22.80;70.00;;;;;;5085820;28;47378;-70
2023/07/08 08:15:44;;;;;;;6.35;2.97;;;22.70;70.00;;;;;;5085575;28;45375;-70
2023/07/08 08:18:11;;;;;;;4.60;2.70;;;22.80;69.70;;;;;;5085652;28;45318;-71
2023/07/08 08:20:39;;;;;;;5.68;3.13;;;22.80;69.60;;;;;;5081283;28;45523;-70
2023/07/08 08:23:07;;;;;;;6.05;3.13;;;22.80;69.60;;;;;;5085644;28;45455;-70
2023/07/08 08:25:34;;;;;;;6.13;3.55;;;22.80;69.60;;;;;;5084614;28;45304;-70
2023/07/08 08:28:01;;;;;;;6.82;3.08;;;22.80;69.20;;;;;;5086537;27;45347;-70
2023/07/08 08:30:29;;;;;;;8.63;3.72;;;22.80;69.00;;;;;;5082472;28;45563;-70
2023/07/08 08:32:55;;;;;;;6.72;3.30;;;22.80;68.80;;;;;;5085225;28;46273;-69
2023/07/08 08:35:22;;;;;;;6.78;3.10;;;22.90;68.80;;;;;;5085381;28;45350;-69
2023/07/08 08:37:49;;;;;;;6.13;3.67;;;22.90;68.70;;;;;;5085732;28;45349;-69
2023/07/08 08:40:18;;;;;;;5.00;3.25;;;22.80;68.40;;;;;;5084829;28;45381;-69
2023/07/08 08:42:53;;;;;;;7.15;3.65;;;22.80;68.50;;;;;;5074416;28;45306;-69
2023/07/08 08:45:25;;;;;;;5.20;3.17;;;22.80;68.50;;;;;;5085502;28;45462;-69
2023/07/08 08:47:58;;;;;;;5.13;3.35;;;22.90;68.30;;;;;;5091741;27;45198;-69
2023/07/08 08:50:31;;;;;;;5.28;3.08;;;22.90;67.30;;;;;;5093776;27;45473;-69
2023/07/08 08:53:02;;;;;;;5.20;2.90;;;22.90;68.00;;;;;;5082616;28;45282;-69
2023/07/08 08:55:29;;;;;;;5.05;2.85;;;22.90;68.10;;;;;;5082196;28;45312;-68
2023/07/08 08:59:43;;;;;;;7.05;3.50;;;23.10;71.70;;;;;;5161427;27;45521;-69
2023/07/08 09:02:29;;;;;;;10.15;4.13;;;23.20;68.90;;;;;;5142864;27;45274;-69
2023/07/08 09:04:59;;;;;;;7.00;4.07;;;23.20;68.70;;;;;;5141244;27;45310;-69
2023/07/08 09:07:27;;;;;;;6.32;3.33;;;23.20;68.70;;;;;;5149604;27;45532;-68
2023/07/08 09:10:02;;;;;;;7.22;3.80;;;23.20;68.50;;;;;;5152228;27;46704;-69
2023/07/08 09:12:30;;;;;;;8.20;3.55;;;23.20;68.40;;;;;;5150015;27;45793;-68
2023/07/08 09:14:58;;;;;;;6.32;3.08;;;23.20;68.60;;;;;;5156368;27;45283;-69
2023/07/08 09:17:31;;;;;;;5.32;3.25;;;23.20;68.80;;;;;;5150764;27;45395;-69
2023/07/08 09:20:04;;;;;;;6.25;3.20;;;23.30;70.10;;;;;;5145663;27;45413;-69
2023/07/08 09:22:37;;;;;;;7.20;3.53;;;23.30;69.30;;;;;;5142367;27;45360;-69
2023/07/08 09:25:11;;;;;;;6.07;3.20;;;23.20;69.20;;;;;;5155667;27;45193;-69
2023/07/08 09:27:38;;;;;;;5.85;3.38;;;23.30;69.30;;;;;;5139836;27;45432;-70
2023/07/08 09:30:13;;;;;;;5.45;3.10;;;23.30;69.40;;;;;;5140462;27;46084;-68
2023/07/08 09:32:40;;;;;;;5.03;3.10;;;23.30;69.50;;;;;;5140576;27;45615;-68
2023/07/08 09:35:09;;;;;;;5.00;3.25;;;23.20;69.50;;;;;;5149956;27;45292;-69
2023/07/08 09:37:38;;;;;;;5.55;3.05;;;23.20;69.60;;;;;;5143196;27;45404;-68
2023/07/08 09:40:17;;;;;;;5.97;3.00;;;23.20;69.60;;;;;;5142709;27;46564;-68
2023/07/08 09:42:45;;;;;;;5.28;2.97;;;23.20;69.60;;;;;;5146761;27;45294;-69
2023/07/08 09:45:16;;;;;;;4.47;3.10;;;23.30;69.80;;;;;;5140656;27;45332;-69
2023/07/08 09:47:45;;;;;;;4.75;3.10;;;23.20;69.70;;;;;;5137132;27;45444;-68
2023/07/08 09:50:19;;;;;;;4.85;2.92;;;23.30;69.80;;;;;;5137552;27;46613;-68
2023/07/08 09:52:48;;;;;;;5.25;2.88;;;23.30;69.80;;;;;;5132109;27;45317;-69
2023/07/08 09:55:15;;;;;;;4.32;2.88;;;23.20;69.80;;;;;;5148841;27;45322;-69
2023/07/08 09:57:43;;;;;;;3.85;2.55;;;23.30;69.90;;;;;;5151844;27;45509;-69
2023/07/08 10:00:15;;;;;;;4.65;2.88;;;23.20;69.80;;;;;;5157228;27;46302;-69
2023/07/08 10:02:46;;;;;;;3.65;2.40;;;23.30;69.90;;;;;;5141157;27;45433;-69
2023/07/08 10:05:18;;;;;;;4.15;2.72;;;23.20;69.90;;;;;;5143410;27;45279;-69
2023/07/08 10:07:46;;;;;;;4.07;2.65;;;23.30;70.00;;;;;;5137346;27;45330;-69
2023/07/08 10:10:16;;;;;;;5.65;2.83;;;23.20;69.90;;;;;;5137283;27;45537;-69
2023/07/08 10:12:57;;;;;;;4.28;2.65;;;23.20;71.10;;;;;;5138148;27;45440;-68
2023/07/08 10:15:33;;;;;;;5.88;2.92;;;23.20;70.10;;;;;;5128670;27;45313;-69
2023/07/08 10:17:59;;;;;;;3.05;2.40;;;23.20;70.10;;;;;;5126301;27;45556;-68
2023/07/08 10:20:37;;;;;;;3.53;2.38;;;23.20;70.20;;;;;;5124694;27;46075;-69
2023/07/08 10:23:14;;;;;;;3.42;2.63;;;23.20;70.20;;;;;;5126013;27;45990;-68
2023/07/08 10:25:49;;;;;;;4.70;2.50;;;23.20;70.30;;;;;;5124954;27;45326;-69
2023/07/08 10:28:27;;;;;;;4.45;2.63;;;23.20;70.40;;;;;;5125878;27;45416;-68
2023/07/08 10:31:10;;;;;;;3.70;2.50;;;23.20;70.30;;;;;;5134180;27;47158;-69
2023/07/08 10:33:56;;;;;;;3.45;2.47;;;23.20;70.40;;;;;;5134541;27;45487;-68
2023/07/08 10:36:29;;;;;;;5.28;2.60;;;23.20;70.50;;;;;;5125659;27;45387;-69
2023/07/08 10:39:20;;;;;;;4.15;2.25;;;23.20;70.40;;;;;;5130289;27;45373;-69
2023/07/08 10:41:58;;;;;;;3.00;2.30;;;23.20;70.40;;;;;;5123393;27;46301;-68
2023/07/08 10:44:34;;;;;;;3.83;2.42;;;23.20;70.30;;;;;;5126233;27;45317;-69
2023/07/08 10:47:26;;;;;;;3.33;2.20;;;23.20;70.40;;;;;;5146788;27;45377;-69
2023/07/08 10:50:05;;;;;;;3.50;2.40;;;23.30;70.50;;;;;;5124667;27;45324;-69
2023/07/08 10:52:44;;;;;;;3.55;2.50;;;23.30;70.50;;;;;;5124504;27;46295;-68
2023/07/08 10:55:30;;;;;;;3.35;2.38;;;23.30;70.50;;;;;;5141294;27;45797;-70
2023/07/08 10:58:18;;;;;;;3.00;2.10;;;23.30;70.50;;;;;;5137510;27;45304;-69
2023/07/08 11:00:52;;;;;;;3.72;2.10;;;23.30;70.50;;;;;;5106715;27;45511;-68
2023/07/08 11:04:02;;;;;;;3.92;2.20;;;23.30;70.50;;;;;;5125094;27;48468;-69
2023/07/08 11:06:40;;;;;;;3.72;1.92;;;23.30;70.50;;;;;;5132834;27;45457;-68
2023/07/08 11:09:19;;;;;;;3.67;2.25;;;23.30;70.50;;;;;;5136124;27;45321;-68
2023/07/08 11:11:54;;;;;;;5.03;2.38;;;23.30;70.50;;;;;;5134272;27;45481;-69
2023/07/08 11:14:27;;;;;;;2.95;2.15;;;23.30;70.70;;;;;;5132666;27;48102;-70
2023/07/08 11:17:01;;;;;;;3.88;2.40;;;23.20;70.60;;;;;;5126520;27;45419;-69
2023/07/08 11:19:35;;;;;;;3.38;2.28;;;23.20;70.70;;;;;;5123373;27;45335;-68
2023/07/08 11:22:06;;;;;;;3.60;2.42;;;23.20;70.70;;;;;;5124043;27;45407;-68
2023/07/08 11:24:39;;;;;;;3.78;2.45;;;23.20;70.70;;;;;;5135500;27;47621;-68
2023/07/08 11:27:11;;;;;;;3.38;2.15;;;23.20;70.60;;;;;;5118347;27;45472;-69
2023/07/08 11:29:41;;;;;;;3.53;2.10;;;23.20;70.70;;;;;;5123652;27;45337;-68
2023/07/08 11:32:12;;;;;;;3.90;2.25;;;23.20;70.70;;;;;;5124723;27;45421;-68
2023/07/08 11:34:43;;;;;;;2.95;2.20;;;23.20;70.70;;;;;;5124998;27;46087;-68
2023/07/08 11:37:12;;;;;;;2.88;1.90;;;23.20;70.70;;;;;;5133075;27;45209;-68
2023/07/08 11:39:42;;;;;;;2.67;1.95;;;23.30;70.70;;;;;;5124056;27;45367;-68
2023/07/08 11:42:19;;;;;;;2.70;2.10;;;23.20;70.70;;;;;;5137279;27;45344;-68
2023/07/08 11:44:51;;;;;;;2.70;2.03;;;23.30;70.70;;;;;;5123717;27;46062;-69
2023/07/08 11:47:22;;;;;;;2.80;2.17;;;23.30;70.80;;;;;;5133147;27;45387;-68
2023/07/08 11:49:53;;;;;;;4.20;2.30;;;23.30;70.70;;;;;;5115922;27;45529;-68
2023/07/08 11:52:23;;;;;;;3.28;2.00;;;23.30;70.70;;;;;;5124787;27;45516;-69
2023/07/08 11:54:57;;;;;;;3.33;2.17;;;23.30;70.70;;;;;;5137218;27;48017;-68
2023/07/08 11:57:31;;;;;;;2.42;1.90;;;23.30;70.70;;;;;;5120699;27;45417;-68
2023/07/08 12:00:17;;;;;;;3.58;2.08;;;23.30;70.70;;;;;;5124037;27;45325;-69
2023/07/08 12:02:56;;;;;;;3.58;1.83;;;23.30;70.80;;;;;;5133493;27;45480;-69
2023/07/08 12:05:35;;;;;;;2.92;2.08;;;23.30;70.80;;;;;;5124177;27;47111;-69
2023/07/08 12:08:03;;;;;;;2.00;1.77;;;23.30;70.70;;;;;;5124661;27;45995;-69
2023/07/08 12:10:35;;;;;;;2.95;2.10;;;23.30;70.80;;;;;;5124841;27;45355;-69
2023/07/08 12:13:03;;;;;;;2.50;2.00;;;23.30;70.80;;;;;;5130472;27;45422;-69
2023/07/08 12:15:31;;;;;;;3.83;2.17;;;23.30;70.80;;;;;;5132810;27;46551;-68
2023/07/08 12:18:03;;;;;;;2.88;2.00;;;23.30;70.80;;;;;;5128995;27;45270;-69
2023/07/08 12:20:33;;;;;;;3.25;1.85;;;23.30;70.90;;;;;;5122355;27;45457;-69
2023/07/08 12:23:01;;;;;;;2.63;1.98;;;23.30;70.90;;;;;;5124120;27;45314;-68
2023/07/08 12:25:32;;;;;;;2.28;1.80;;;23.30;70.90;;;;;;5123455;27;46406;-69
2023/07/08 12:27:59;;;;;;;2.97;1.95;;;23.30;71.00;;;;;;5124026;27;45294;-69
2023/07/08 12:30:29;;;;;;;2.22;1.70;;;23.30;70.90;;;;;;5123387;27;45342;-68
2023/07/08 12:32:59;;;;;;;2.28;1.65;;;23.30;70.90;;;;;;5123994;27;45571;-69
2023/07/08 12:35:28;;;;;;;2.63;1.70;;;23.30;70.90;;;;;;5132159;27;46405;-68
2023/07/08 12:37:58;;;;;;;2.60;1.98;;;23.30;70.90;;;;;;5132461;27;45376;-69
2023/07/08 12:40:28;;;;;;;2.70;1.88;;;23.30;70.90;;;;;;5131897;27;45328;-68
2023/07/08 12:42:55;;;;;;;2.70;1.88;;;23.20;70.80;;;;;;5124182;27;45234;-70
2023/07/08 12:45:25;;;;;;;2.15;1.75;;;23.30;70.80;;;;;;5123752;27;46347;-69
2023/07/08 12:47:52;;;;;;;2.50;1.77;;;23.30;70.80;;;;;;5115873;27;45439;-68
2023/07/08 12:50:19;;;;;;;2.97;1.80;;;23.30;70.80;;;;;;5123191;27;45276;-68
2023/07/08 12:52:47;;;;;;;2.45;1.90;;;23.30;70.80;;;;;;5123737;27;45708;-68
2023/07/08 12:55:15;;;;;;;2.85;1.90;;;23.30;70.70;;;;;;5123763;27;46663;-68
2023/07/08 12:57:45;;;;;;;2.47;1.80;;;23.30;70.70;;;;;;5134645;27;45370;-68
2023/07/08 13:00:17;;;;;;;2.50;1.70;;;23.30;70.70;;;;;;5127872;27;45556;-68